sensor_id;sensor_type;location;lat;lon;timestamp;pressure;altitude;pressure_sealevel;temperature;humidity
46379;BME280;32084;42.254;22.744;2023-05-22T00:00:53;94880.09;;;16.50;67.45
46379;BME280;32084;42.254;22.744;2023-05-22T00:03:19;94890.16;;;16.15;68.63
46379;BME280;32084;42.254;22.744;2023-05-22T00:05:49;94890.53;;;15.70;71.32
46379;BME280;32084;42.254;22.744;2023-05-22T00:08:15;94875.66;;;15.74;71.36
46379;BME280;32084;42.254;22.744;2023-05-22T00:10:41;94879.53;;;16.00;69.73
46379;BME280;32084;42.254;22.744;2023-05-22T00:13:07;94881.03;;;16.09;70.15
46379;BME280;32084;42.254;22.744;2023-05-22T00:15:33;94881.19;;;16.01;70.78
46379;BME280;32084;42.254;22.744;2023-05-22T00:17:59;94877.03;;;15.98;69.98
46379;BME280;32084;42.254;22.744;2023-05-22T00:20:25;94882.91;;;16.15;68.74
46379;BME280;32084;42.254;22.744;2023-05-22T00:22:51;94890.22;;;16.28;67.98
46379;BME280;32084;42.254;22.744;2023-05-22T00:25:19;94890.44;;;16.33;67.86
46379;BME280;32084;42.254;22.744;2023-05-22T00:27:46;94890.44;;;16.33;68.02
46379;BME280;32084;42.254;22.744;2023-05-22T00:30:12;94885.63;;;16.29;68.03
46379;BME280;32084;42.254;22.744;2023-05-22T00:32:38;94891.69;;;16.37;68.29
46379;BME280;32084;42.254;22.744;2023-05-22T00:35:04;94891.50;;;16.46;67.69
46379;BME280;32084;42.254;22.744;2023-05-22T00:37:31;94888.19;;;16.50;67.52
46379;BME280;32084;42.254;22.744;2023-05-22T00:39:57;94889.44;;;16.48;68.09
46379;BME280;32084;42.254;22.744;2023-05-22T00:42:23;94875.13;;;16.47;67.84
46379;BME280;32084;42.254;22.744;2023-05-22T00:44:49;94878.22;;;16.37;68.25
46379;BME280;32084;42.254;22.744;2023-05-22T00:47:15;94874.88;;;16.35;68.80
46379;BME280;32084;42.254;22.744;2023-05-22T00:49:41;94876.53;;;16.30;68.67
46379;BME280;32084;42.254;22.744;2023-05-22T00:52:08;94872.59;;;16.32;68.92
46379;BME280;32084;42.254;22.744;2023-05-22T00:54:34;94866.13;;;16.27;69.04
46379;BME280;32084;42.254;22.744;2023-05-22T00:57:01;94858.66;;;16.22;69.26
46379;BME280;32084;42.254;22.744;2023-05-22T00:59:28;94875.63;;;16.16;70.08
46379;BME280;32084;42.254;22.744;2023-05-22T01:01:54;94874.56;;;16.10;70.92
46379;BME280;32084;42.254;22.744;2023-05-22T01:04:22;94866.69;;;16.02;70.96
46379;BME280;32084;42.254;22.744;2023-05-22T01:06:48;94873.13;;;16.08;70.40
46379;BME280;32084;42.254;22.744;2023-05-22T01:09:14;94880.59;;;16.06;71.20
46379;BME280;32084;42.254;22.744;2023-05-22T01:21:46;94867.50;;;15.96;71.36
46379;BME280;32084;42.254;22.744;2023-05-22T01:32:30;94866.81;;;15.87;72.58
46379;BME280;32084;42.254;22.744;2023-05-22T01:34:59;94858.16;;;15.92;72.19
46379;BME280;32084;42.254;22.744;2023-05-22T01:37:26;94865.84;;;16.02;72.28
46379;BME280;32084;42.254;22.744;2023-05-22T01:39:52;94857.34;;;15.98;72.72
46379;BME280;32084;42.254;22.744;2023-05-22T01:42:19;94862.72;;;15.98;72.54
46379;BME280;32084;42.254;22.744;2023-05-22T01:44:46;94857.13;;;15.99;72.34
46379;BME280;32084;42.254;22.744;2023-05-22T01:47:13;94854.44;;;15.99;72.30
46379;BME280;32084;42.254;22.744;2023-05-22T01:49:39;94851.13;;;15.97;72.34
46379;BME280;32084;42.254;22.744;2023-05-22T01:52:09;94846.94;;;15.95;72.54
46379;BME280;32084;42.254;22.744;2023-05-22T01:54:39;94851.94;;;15.98;72.58
46379;BME280;32084;42.254;22.744;2023-05-22T01:59:43;94850.00;;;15.78;73.65
46379;BME280;32084;42.254;22.744;2023-05-22T02:02:14;94841.50;;;15.81;73.42
46379;BME280;32084;42.254;22.744;2023-05-22T02:04:41;94847.13;;;15.87;72.99
46379;BME280;32084;42.254;22.744;2023-05-22T02:07:10;94853.63;;;15.64;74.13
46379;BME280;32084;42.254;22.744;2023-05-22T02:09:37;94853.63;;;15.64;73.81
46379;BME280;32084;42.254;22.744;2023-05-22T02:12:03;94850.00;;;15.78;73.29
46379;BME280;32084;42.254;22.744;2023-05-22T02:14:30;94858.09;;;15.78;73.27
46379;BME280;32084;42.254;22.744;2023-05-22T02:16:56;94855.41;;;15.78;73.83
46379;BME280;32084;42.254;22.744;2023-05-22T02:19:23;94854.88;;;15.68;74.30
46379;BME280;32084;42.254;22.744;2023-05-22T02:21:49;94859.50;;;15.74;73.52
46379;BME280;32084;42.254;22.744;2023-05-22T02:24:15;94856.50;;;15.62;74.24
46379;BME280;32084;42.254;22.744;2023-05-22T02:26:41;94854.56;;;15.50;74.78
46379;BME280;32084;42.254;22.744;2023-05-22T02:29:07;94864.22;;;15.72;73.46
46379;BME280;32084;42.254;22.744;2023-05-22T02:31:33;94860.72;;;15.72;73.35
46379;BME280;32084;42.254;22.744;2023-05-22T02:34:00;94863.25;;;15.73;73.48
46379;BME280;32084;42.254;22.744;2023-05-22T02:36:26;94856.59;;;15.76;73.26
46379;BME280;32084;42.254;22.744;2023-05-22T02:38:52;94862.88;;;15.83;72.88
46379;BME280;32084;42.254;22.744;2023-05-22T02:41:20;94860.16;;;15.76;73.47
46379;BME280;32084;42.254;22.744;2023-05-22T02:43:46;94867.00;;;15.79;72.95
46379;BME280;32084;42.254;22.744;2023-05-22T02:46:12;94864.22;;;15.66;74.12
46379;BME280;32084;42.254;22.744;2023-05-22T02:48:38;94861.06;;;15.62;74.25
46379;BME280;32084;42.254;22.744;2023-05-22T02:51:04;94861.88;;;15.56;74.74
46379;BME280;32084;42.254;22.744;2023-05-22T02:53:30;94868.47;;;15.53;74.39
46379;BME280;32084;42.254;22.744;2023-05-22T02:55:58;94863.31;;;15.52;74.53
46379;BME280;32084;42.254;22.744;2023-05-22T02:58:24;94867.47;;;15.61;73.97
46379;BME280;32084;42.254;22.744;2023-05-22T03:00:50;94866.47;;;15.69;73.76
46379;BME280;32084;42.254;22.744;2023-05-22T03:03:17;94860.72;;;15.72;73.70
46379;BME280;32084;42.254;22.744;2023-05-22T03:05:44;94866.47;;;15.69;73.90
46379;BME280;32084;42.254;22.744;2023-05-22T03:08:10;94870.22;;;15.68;73.81
46379;BME280;32084;42.254;22.744;2023-05-22T03:10:37;94875.19;;;15.64;74.14
46379;BME280;32084;42.254;22.744;2023-05-22T03:13:03;94869.41;;;15.67;73.85
46379;BME280;32084;42.254;22.744;2023-05-22T03:15:29;94870.63;;;15.65;74.01
46379;BME280;32084;42.254;22.744;2023-05-22T03:17:55;94867.34;;;15.69;73.78
46379;BME280;32084;42.254;22.744;2023-05-22T03:20:21;94873.50;;;15.63;73.66
46379;BME280;32084;42.254;22.744;2023-05-22T03:22:47;94866.47;;;15.62;73.70
46379;BME280;32084;42.254;22.744;2023-05-22T03:25:13;94868.63;;;15.73;73.75
46379;BME280;32084;42.254;22.744;2023-05-22T03:27:39;94869.34;;;15.60;74.17
46379;BME280;32084;42.254;22.744;2023-05-22T03:30:06;94860.69;;;15.65;73.91
46379;BME280;32084;42.254;22.744;2023-05-22T03:32:33;94873.63;;;15.76;73.45
46379;BME280;32084;42.254;22.744;2023-05-22T03:35:02;94869.72;;;15.86;72.97
46379;BME280;32084;42.254;22.744;2023-05-22T03:37:28;94863.69;;;15.84;73.70
46379;BME280;32084;42.254;22.744;2023-05-22T03:39:54;94865.13;;;15.79;73.49
46379;BME280;32084;42.254;22.744;2023-05-22T03:42:20;94863.94;;;15.89;73.61
46379;BME280;32084;42.254;22.744;2023-05-22T03:44:47;94867.69;;;15.94;73.01
46379;BME280;32084;42.254;22.744;2023-05-22T03:47:14;94876.59;;;15.95;73.36
46379;BME280;32084;42.254;22.744;2023-05-22T03:49:41;94875.78;;;16.01;72.86
46379;BME280;32084;42.254;22.744;2023-05-22T03:52:08;94874.38;;;16.12;72.51
46379;BME280;32084;42.254;22.744;2023-05-22T03:54:34;94880.19;;;16.09;73.41
46379;BME280;32084;42.254;22.744;2023-05-22T03:57:01;94881.59;;;15.98;74.25
46379;BME280;32084;42.254;22.744;2023-05-22T03:59:27;94876.63;;;16.02;74.04
46379;BME280;32084;42.254;22.744;2023-05-22T04:01:53;94874.75;;;16.02;73.81
46379;BME280;32084;42.254;22.744;2023-05-22T04:04:19;94882.22;;;16.00;74.38
46379;BME280;32084;42.254;22.744;2023-05-22T04:06:45;94886.56;;;16.01;73.57
46379;BME280;32084;42.254;22.744;2023-05-22T04:09:11;94885.59;;;16.15;73.06
46379;BME280;32084;42.254;22.744;2023-05-22T04:11:38;94889.34;;;16.21;73.85
46379;BME280;32084;42.254;22.744;2023-05-22T04:14:07;94889.56;;;16.19;74.12
46379;BME280;32084;42.254;22.744;2023-05-22T04:16:33;94891.28;;;16.34;72.90
46379;BME280;32084;42.254;22.744;2023-05-22T04:19:00;94897.69;;;16.33;74.59
46379;BME280;32084;42.254;22.744;2023-05-22T04:21:31;94887.75;;;16.40;74.29
46379;BME280;32084;42.254;22.744;2023-05-22T04:23:59;94895.44;;;16.50;72.72
46379;BME280;32084;42.254;22.744;2023-05-22T04:26:26;94894.44;;;16.51;73.98
46379;BME280;32084;42.254;22.744;2023-05-22T04:28:56;94896.31;;;16.57;72.42
46379;BME280;32084;42.254;22.744;2023-05-22T04:31:22;94891.31;;;16.61;72.80
46379;BME280;32084;42.254;22.744;2023-05-22T04:33:48;94892.38;;;16.73;71.98
46379;BME280;32084;42.254;22.744;2023-05-22T04:36:15;94895.13;;;16.86;72.88
46379;BME280;32084;42.254;22.744;2023-05-22T04:38:42;94894.91;;;16.81;71.54
46379;BME280;32084;42.254;22.744;2023-05-22T04:41:12;94889.91;;;16.78;72.56
46379;BME280;32084;42.254;22.744;2023-05-22T04:43:39;94901.13;;;16.82;73.81
46379;BME280;32084;42.254;22.744;2023-05-22T04:46:05;94891.00;;;16.90;71.47
46379;BME280;32084;42.254;22.744;2023-05-22T04:48:33;94895.75;;;16.88;71.83
46379;BME280;32084;42.254;22.744;2023-05-22T04:51:00;94898.25;;;17.10;72.23
46379;BME280;32084;42.254;22.744;2023-05-22T04:53:27;94899.25;;;17.49;71.29
46379;BME280;32084;42.254;22.744;2023-05-22T04:55:55;94897.53;;;17.81;69.33
46379;BME280;32084;42.254;22.744;2023-05-22T04:58:21;94894.34;;;18.18;68.74
46379;BME280;32084;42.254;22.744;2023-05-22T05:00:48;94897.47;;;18.60;69.10
46379;BME280;32084;42.254;22.744;2023-05-22T05:03:14;94901.31;;;18.84;66.03
46379;BME280;32084;42.254;22.744;2023-05-22T05:05:40;94910.09;;;18.72;66.60
46379;BME280;32084;42.254;22.744;2023-05-22T05:08:06;94903.16;;;18.45;67.68
46379;BME280;32084;42.254;22.744;2023-05-22T05:10:32;94900.13;;;18.28;67.54
46379;BME280;32084;42.254;22.744;2023-05-22T05:12:58;94897.94;;;18.43;67.51
46379;BME280;32084;42.254;22.744;2023-05-22T05:15:24;94898.88;;;18.69;66.18
46379;BME280;32084;42.254;22.744;2023-05-22T05:17:52;94902.06;;;18.91;65.60
46379;BME280;32084;42.254;22.744;2023-05-22T05:20:18;94902.38;;;19.08;64.61
46379;BME280;32084;42.254;22.744;2023-05-22T05:22:44;94896.00;;;18.96;65.18
46379;BME280;32084;42.254;22.744;2023-05-22T05:25:11;94897.81;;;18.70;65.13
46379;BME280;32084;42.254;22.744;2023-05-22T05:27:37;94901.19;;;18.59;65.68
46379;BME280;32084;42.254;22.744;2023-05-22T05:30:03;94894.44;;;18.81;65.62
46379;BME280;32084;42.254;22.744;2023-05-22T05:32:29;94899.13;;;18.99;64.97
46379;BME280;32084;42.254;22.744;2023-05-22T05:34:55;94895.91;;;19.34;62.38
46379;BME280;32084;42.254;22.744;2023-05-22T05:37:22;94893.34;;;19.64;61.84
46379;BME280;32084;42.254;22.744;2023-05-22T05:39:48;94896.84;;;20.08;62.94
46379;BME280;32084;42.254;22.744;2023-05-22T05:42:14;94900.94;;;20.18;61.46
46379;BME280;32084;42.254;22.744;2023-05-22T05:44:42;94904.63;;;19.86;61.69
46379;BME280;32084;42.254;22.744;2023-05-22T05:47:08;94905.22;;;20.25;59.65
46379;BME280;32084;42.254;22.744;2023-05-22T05:49:34;94899.13;;;20.30;59.78
46379;BME280;32084;42.254;22.744;2023-05-22T05:52:00;94904.63;;;20.23;60.98
46379;BME280;32084;42.254;22.744;2023-05-22T05:54:26;94907.44;;;20.65;60.38
46379;BME280;32084;42.254;22.744;2023-05-22T05:56:52;94910.19;;;20.47;59.29
46379;BME280;32084;42.254;22.744;2023-05-22T05:59:19;94911.72;;;20.24;59.29
46379;BME280;32084;42.254;22.744;2023-05-22T06:01:45;94907.72;;;19.90;60.82
46379;BME280;32084;42.254;22.744;2023-05-22T06:04:12;94912.06;;;19.73;61.52
46379;BME280;32084;42.254;22.744;2023-05-22T06:06:38;94911.47;;;19.89;60.70
46379;BME280;32084;42.254;22.744;2023-05-22T06:09:04;94916.84;;;19.70;60.23
46379;BME280;32084;42.254;22.744;2023-05-22T06:11:33;94926.00;;;19.51;62.16
46379;BME280;32084;42.254;22.744;2023-05-22T06:14:03;94928.31;;;19.47;61.54
46379;BME280;32084;42.254;22.744;2023-05-22T06:16:29;94926.34;;;19.36;62.57
46379;BME280;32084;42.254;22.744;2023-05-22T06:18:58;94921.22;;;19.21;60.48
46379;BME280;32084;42.254;22.744;2023-05-22T06:21:25;94920.63;;;19.19;61.40
46379;BME280;32084;42.254;22.744;2023-05-22T06:23:52;94914.72;;;19.29;60.44
46379;BME280;32084;42.254;22.744;2023-05-22T06:26:18;94925.44;;;19.42;60.63
46379;BME280;32084;42.254;22.744;2023-05-22T06:28:44;94922.50;;;19.44;59.93
46379;BME280;32084;42.254;22.744;2023-05-22T06:31:10;94923.91;;;19.53;62.62
46379;BME280;32084;42.254;22.744;2023-05-22T06:33:37;94921.19;;;19.53;62.53
46379;BME280;32084;42.254;22.744;2023-05-22T06:36:04;94920.00;;;19.42;59.95
46379;BME280;32084;42.254;22.744;2023-05-22T06:38:31;94917.78;;;19.58;59.85
46379;BME280;32084;42.254;22.744;2023-05-22T06:40:57;94907.84;;;19.95;58.61
46379;BME280;32084;42.254;22.744;2023-05-22T06:43:23;94915.00;;;20.45;57.05
46379;BME280;32084;42.254;22.744;2023-05-22T06:45:49;94914.47;;;20.55;57.77
46379;BME280;32084;42.254;22.744;2023-05-22T06:48:16;94912.66;;;20.48;58.24
46379;BME280;32084;42.254;22.744;2023-05-22T06:50:42;94918.72;;;20.32;58.30
46379;BME280;32084;42.254;22.744;2023-05-22T06:53:08;94918.28;;;20.17;59.41
46379;BME280;32084;42.254;22.744;2023-05-22T06:55:34;94918.13;;;20.12;59.47
46379;BME280;32084;42.254;22.744;2023-05-22T06:58:00;94919.47;;;20.02;58.10
46379;BME280;32084;42.254;22.744;2023-05-22T07:00:26;94915.94;;;20.02;58.77
46379;BME280;32084;42.254;22.744;2023-05-22T07:02:53;94914.03;;;20.02;58.23
46379;BME280;32084;42.254;22.744;2023-05-22T07:05:19;94914.97;;;19.96;59.12
46379;BME280;32084;42.254;22.744;2023-05-22T07:07:45;94914.72;;;20.16;57.39
46379;BME280;32084;42.254;22.744;2023-05-22T07:10:11;94913.34;;;20.25;57.06
46379;BME280;32084;42.254;22.744;2023-05-22T07:12:37;94914.28;;;20.38;57.63
46379;BME280;32084;42.254;22.744;2023-05-22T07:15:03;94912.66;;;20.48;58.20
46379;BME280;32084;42.254;22.744;2023-05-22T07:17:29;94909.63;;;20.57;57.88
46379;BME280;32084;42.254;22.744;2023-05-22T07:19:56;94910.03;;;20.60;58.42
46379;BME280;32084;42.254;22.744;2023-05-22T07:22:22;94908.16;;;20.61;57.94
46379;BME280;32084;42.254;22.744;2023-05-22T07:24:48;94911.38;;;20.51;56.45
46379;BME280;32084;42.254;22.744;2023-05-22T07:27:14;94909.66;;;20.38;55.87
46379;BME280;32084;42.254;22.744;2023-05-22T07:29:41;94907.75;;;20.39;56.10
46379;BME280;32084;42.254;22.744;2023-05-22T07:32:07;94903.69;;;20.29;54.81
46379;BME280;32084;42.254;22.744;2023-05-22T07:34:33;94907.72;;;20.27;56.57
46379;BME280;32084;42.254;22.744;2023-05-22T07:36:59;94899.56;;;20.27;56.72
46379;BME280;32084;42.254;22.744;2023-05-22T07:39:26;94903.94;;;20.28;56.03
46379;BME280;32084;42.254;22.744;2023-05-22T07:41:52;94897.44;;;20.29;55.76
46379;BME280;32084;42.254;22.744;2023-05-22T07:44:19;94907.00;;;20.32;56.39
46379;BME280;32084;42.254;22.744;2023-05-22T07:46:45;94905.66;;;20.41;55.95
46379;BME280;32084;42.254;22.744;2023-05-22T07:49:11;94902.72;;;20.42;55.43
46379;BME280;32084;42.254;22.744;2023-05-22T07:51:37;94899.66;;;20.51;56.57
46379;BME280;32084;42.254;22.744;2023-05-22T07:54:05;94888.59;;;20.71;54.76
46379;BME280;32084;42.254;22.744;2023-05-22T07:56:32;94895.69;;;21.25;54.93
46379;BME280;32084;42.254;22.744;2023-05-22T07:59:01;94897.78;;;21.66;54.49
46379;BME280;32084;42.254;22.744;2023-05-22T08:01:27;94904.72;;;21.85;52.06
46379;BME280;32084;42.254;22.744;2023-05-22T08:03:53;94899.03;;;21.98;51.84
46379;BME280;32084;42.254;22.744;2023-05-22T08:06:19;94901.63;;;22.17;49.81
46379;BME280;32084;42.254;22.744;2023-05-22T08:08:48;94887.56;;;21.96;51.26
46379;BME280;32084;42.254;22.744;2023-05-22T08:11:14;94896.31;;;21.98;52.01
46379;BME280;32084;42.254;22.744;2023-05-22T08:13:40;94894.53;;;22.16;51.09
46379;BME280;32084;42.254;22.744;2023-05-22T08:16:06;94902.47;;;22.29;48.29
46379;BME280;32084;42.254;22.744;2023-05-22T08:18:32;94893.00;;;22.32;47.97
46379;BME280;32084;42.254;22.744;2023-05-22T08:20:58;94895.94;;;22.30;48.50
46379;BME280;32084;42.254;22.744;2023-05-22T08:23:25;94907.25;;;22.51;45.23
46379;BME280;32084;42.254;22.744;2023-05-22T08:25:51;94899.72;;;22.70;46.72
46379;BME280;32084;42.254;22.744;2023-05-22T08:28:17;94899.38;;;22.66;45.66
46379;BME280;32084;42.254;22.744;2023-05-22T08:30:43;94902.06;;;22.78;47.69
46379;BME280;32084;42.254;22.744;2023-05-22T08:33:09;94899.78;;;22.87;47.89
46379;BME280;32084;42.254;22.744;2023-05-22T08:35:36;94904.38;;;22.69;47.04
46379;BME280;32084;42.254;22.744;2023-05-22T08:38:02;94897.75;;;22.65;48.39
46379;BME280;32084;42.254;22.744;2023-05-22T08:40:31;94899.28;;;22.61;47.57
46379;BME280;32084;42.254;22.744;2023-05-22T08:42:59;94904.16;;;22.88;46.92
46379;BME280;32084;42.254;22.744;2023-05-22T08:45:25;94906.00;;;23.62;45.15
46379;BME280;32084;42.254;22.744;2023-05-22T08:47:54;94911.44;;;24.51;45.24
46379;BME280;32084;42.254;22.744;2023-05-22T08:50:23;94907.81;;;24.95;45.24
46379;BME280;32084;42.254;22.744;2023-05-22T08:52:50;94901.44;;;25.39;45.59
46379;BME280;32084;42.254;22.744;2023-05-22T08:55:16;94908.84;;;25.43;42.87
46379;BME280;32084;42.254;22.744;2023-05-22T08:57:44;94902.84;;;24.92;40.57
46379;BME280;32084;42.254;22.744;2023-05-22T09:00:10;94900.34;;;24.63;42.02
46379;BME280;32084;42.254;22.744;2023-05-22T09:02:37;94887.16;;;24.82;43.36
46379;BME280;32084;42.254;22.744;2023-05-22T09:05:06;94897.91;;;24.45;41.95
46379;BME280;32084;42.254;22.744;2023-05-22T09:07:32;94892.44;;;24.45;42.90
46379;BME280;32084;42.254;22.744;2023-05-22T09:09:58;94897.16;;;24.27;41.70
46379;BME280;32084;42.254;22.744;2023-05-22T09:12:25;94888.94;;;23.88;42.37
46379;BME280;32084;42.254;22.744;2023-05-22T09:14:51;94889.78;;;23.72;42.91
46379;BME280;32084;42.254;22.744;2023-05-22T09:17:18;94880.69;;;23.66;44.65
46379;BME280;32084;42.254;22.744;2023-05-22T09:19:45;94888.91;;;23.49;44.91
46379;BME280;32084;42.254;22.744;2023-05-22T09:22:12;94896.56;;;23.18;42.58
46379;BME280;32084;42.254;22.744;2023-05-22T09:24:41;94883.84;;;22.95;43.88
46379;BME280;32084;42.254;22.744;2023-05-22T09:27:08;94884.00;;;23.17;43.85
46379;BME280;32084;42.254;22.744;2023-05-22T09:29:50;94894.56;;;23.14;42.45
46379;BME280;32084;42.254;22.744;2023-05-22T09:32:17;94893.00;;;23.18;42.90
46379;BME280;32084;42.254;22.744;2023-05-22T09:34:44;94885.09;;;23.16;44.18
46379;BME280;32084;42.254;22.744;2023-05-22T09:37:15;94880.59;;;23.10;43.54
46379;BME280;32084;42.254;22.744;2023-05-22T09:39:44;94884.34;;;22.92;44.96
46379;BME280;32084;42.254;22.744;2023-05-22T09:42:14;94879.00;;;22.69;46.13
46379;BME280;32084;42.254;22.744;2023-05-22T09:44:46;94877.47;;;22.32;46.12
46379;BME280;32084;42.254;22.744;2023-05-22T09:47:12;94879.91;;;22.46;45.98
46379;BME280;32084;42.254;22.744;2023-05-22T09:49:42;94876.59;;;22.44;47.69
46379;BME280;32084;42.254;22.744;2023-05-22T09:52:09;94879.97;;;22.22;47.28
46379;BME280;32084;42.254;22.744;2023-05-22T09:54:57;94888.75;;;22.12;44.54
46379;BME280;32084;42.254;22.744;2023-05-22T09:57:23;94878.47;;;22.02;45.59
46379;BME280;32084;42.254;22.744;2023-05-22T09:59:50;94876.88;;;22.18;45.92
46379;BME280;32084;42.254;22.744;2023-05-22T10:02:21;94873.13;;;21.96;45.67
46379;BME280;32084;42.254;22.744;2023-05-22T10:04:48;94875.97;;;21.89;45.98
46379;BME280;32084;42.254;22.744;2023-05-22T10:07:16;94876.34;;;21.81;46.62
46379;BME280;32084;42.254;22.744;2023-05-22T10:09:42;94879.06;;;21.81;45.41
46379;BME280;32084;42.254;22.744;2023-05-22T10:12:10;94872.09;;;21.97;45.60
46379;BME280;32084;42.254;22.744;2023-05-22T10:14:40;94864.69;;;22.21;46.34
46379;BME280;32084;42.254;22.744;2023-05-22T10:17:07;94862.75;;;22.45;46.12
46379;BME280;32084;42.254;22.744;2023-05-22T10:19:36;94859.41;;;22.55;45.81
46379;BME280;32084;42.254;22.744;2023-05-22T10:22:02;94862.34;;;22.53;45.12
46379;BME280;32084;42.254;22.744;2023-05-22T10:24:29;94860.38;;;22.49;46.51
46379;BME280;32084;42.254;22.744;2023-05-22T10:26:56;94862.06;;;22.38;47.63
46379;BME280;32084;42.254;22.744;2023-05-22T10:29:30;94860.66;;;22.35;47.81
46379;BME280;32084;42.254;22.744;2023-05-22T10:34:37;94865.75;;;22.20;47.41
46379;BME280;32084;42.254;22.744;2023-05-22T10:39:36;94869.31;;;22.20;48.61
46379;BME280;32084;42.254;22.744;2023-05-22T10:42:12;94862.31;;;22.25;46.32
46379;BME280;32084;42.254;22.744;2023-05-22T10:44:39;94863.84;;;22.20;47.88
46379;BME280;32084;42.254;22.744;2023-05-22T10:47:09;94864.38;;;22.06;45.90
46379;BME280;32084;42.254;22.744;2023-05-22T10:49:38;94864.91;;;22.19;47.19
46379;BME280;32084;42.254;22.744;2023-05-22T10:52:07;94858.75;;;22.36;48.05
46379;BME280;32084;42.254;22.744;2023-05-22T10:54:41;94852.44;;;22.47;48.32
46379;BME280;32084;42.254;22.744;2023-05-22T10:57:14;94847.81;;;22.48;48.42
46379;BME280;32084;42.254;22.744;2023-05-22T10:59:45;94855.22;;;22.35;46.00
46379;BME280;32084;42.254;22.744;2023-05-22T11:02:23;94839.56;;;22.31;48.81
46379;BME280;32084;42.254;22.744;2023-05-22T11:04:53;94837.31;;;22.39;50.46
46379;BME280;32084;42.254;22.744;2023-05-22T11:07:19;94835.13;;;22.53;49.47
46379;BME280;32084;42.254;22.744;2023-05-22T11:09:46;94842.53;;;22.41;50.31
46379;BME280;32084;42.254;22.744;2023-05-22T11:14:41;94844.31;;;22.35;44.54
46379;BME280;32084;42.254;22.744;2023-05-22T11:17:07;94843.03;;;22.55;44.87
46379;BME280;32084;42.254;22.744;2023-05-22T11:19:38;94846.47;;;22.62;43.64
46379;BME280;32084;42.254;22.744;2023-05-22T11:22:04;94837.34;;;22.85;43.67
46379;BME280;32084;42.254;22.744;2023-05-22T11:24:33;94836.81;;;23.17;43.38
46379;BME280;32084;42.254;22.744;2023-05-22T11:27:05;94828.63;;;23.34;43.33
46379;BME280;32084;42.254;22.744;2023-05-22T11:29:32;94832.34;;;23.45;40.48
46379;BME280;32084;42.254;22.744;2023-05-22T11:31:58;94835.91;;;23.45;38.44
46379;BME280;32084;42.254;22.744;2023-05-22T11:34:24;94831.59;;;23.49;38.84
46379;BME280;32084;42.254;22.744;2023-05-22T11:36:51;94841.94;;;23.47;38.64
46379;BME280;32084;42.254;22.744;2023-05-22T11:39:17;94827.03;;;23.55;39.78
46379;BME280;32084;42.254;22.744;2023-05-22T11:41:43;94827.69;;;23.79;39.86
46379;BME280;32084;42.254;22.744;2023-05-22T11:44:10;94832.97;;;23.86;39.53
46379;BME280;32084;42.254;22.744;2023-05-22T11:46:37;94834.88;;;23.85;37.75
46379;BME280;32084;42.254;22.744;2023-05-22T11:49:03;94833.63;;;23.76;37.95
46379;BME280;32084;42.254;22.744;2023-05-22T11:51:29;94825.53;;;23.64;38.55
46379;BME280;32084;42.254;22.744;2023-05-22T11:53:55;94820.81;;;23.59;41.89
46379;BME280;32084;42.254;22.744;2023-05-22T11:56:21;94826.84;;;23.62;38.78
46379;BME280;32084;42.254;22.744;2023-05-22T11:58:48;94823.16;;;23.68;39.81
46379;BME280;32084;42.254;22.744;2023-05-22T12:01:14;94826.94;;;23.84;41.85
46379;BME280;32084;42.254;22.744;2023-05-22T12:03:40;94837.28;;;23.65;41.24
46379;BME280;32084;42.254;22.744;2023-05-22T12:06:06;94834.09;;;23.34;39.38
46379;BME280;32084;42.254;22.744;2023-05-22T12:08:33;94837.63;;;23.17;38.93
46379;BME280;32084;42.254;22.744;2023-05-22T12:11:03;94837.19;;;22.92;38.05
46379;BME280;32084;42.254;22.744;2023-05-22T12:13:29;94835.44;;;22.86;37.93
46379;BME280;32084;42.254;22.744;2023-05-22T12:15:58;94833.94;;;22.78;38.86
46379;BME280;32084;42.254;22.744;2023-05-22T12:18:25;94830.97;;;22.79;40.07
46379;BME280;32084;42.254;22.744;2023-05-22T12:20:53;94839.56;;;22.88;39.60
46379;BME280;32084;42.254;22.744;2023-05-22T12:23:20;94843.56;;;22.69;38.75
46379;BME280;32084;42.254;22.744;2023-05-22T12:25:46;94835.66;;;22.67;38.74
46379;BME280;32084;42.254;22.744;2023-05-22T12:28:12;94832.06;;;22.78;40.60
46379;BME280;32084;42.254;22.744;2023-05-22T12:30:39;94835.59;;;22.79;41.60
46379;BME280;32084;42.254;22.744;2023-05-22T12:33:11;94832.97;;;22.84;40.19
46379;BME280;32084;42.254;22.744;2023-05-22T12:35:38;94832.78;;;22.91;39.53
46379;BME280;32084;42.254;22.744;2023-05-22T12:38:05;94842.31;;;22.88;38.02
46379;BME280;32084;42.254;22.744;2023-05-22T12:40:31;94830.38;;;22.77;41.39
46379;BME280;32084;42.254;22.744;2023-05-22T12:42:57;94834.50;;;22.80;39.57
46379;BME280;32084;42.254;22.744;2023-05-22T12:45:24;94827.75;;;22.83;39.34
46379;BME280;32084;42.254;22.744;2023-05-22T12:47:50;94828.09;;;22.86;40.26
46379;BME280;32084;42.254;22.744;2023-05-22T12:50:15;94831.97;;;22.90;39.81
46379;BME280;32084;42.254;22.744;2023-05-22T12:52:41;94828.03;;;22.98;39.63
46379;BME280;32084;42.254;22.744;2023-05-22T12:55:08;94822.06;;;23.01;40.08
46379;BME280;32084;42.254;22.744;2023-05-22T12:57:35;94832.84;;;23.08;39.23
46379;BME280;32084;42.254;22.744;2023-05-22T13:00:01;94826.81;;;23.06;38.81
46379;BME280;32084;42.254;22.744;2023-05-22T13:02:27;94833.00;;;23.18;39.36
46379;BME280;32084;42.254;22.744;2023-05-22T13:04:53;94829.78;;;23.38;40.74
46379;BME280;32084;42.254;22.744;2023-05-22T13:07:19;94845.81;;;23.34;38.42
46379;BME280;32084;42.254;22.744;2023-05-22T13:09:45;94837.53;;;23.29;38.32
46379;BME280;32084;42.254;22.744;2023-05-22T13:12:11;94830.03;;;23.36;40.14
46379;BME280;32084;42.254;22.744;2023-05-22T13:14:37;94843.44;;;23.21;40.15
46379;BME280;32084;42.254;22.744;2023-05-22T13:17:04;94844.84;;;22.95;39.50